createdAt,value
2019-02-08T00:00:23.305Z,88.80
2019-02-08T00:02:50.642Z,88.90
2019-02-08T00:05:18.013Z,88.90
2019-02-08T00:07:45.372Z,89.00
2019-02-08T00:10:12.789Z,89.10
2019-02-08T00:12:40.176Z,89.20
2019-02-08T00:15:07.639Z,89.30
2019-02-08T00:17:35.172Z,89.40
2019-02-08T00:20:04.666Z,89.70
2019-02-08T00:22:31.896Z,89.90
2019-02-08T00:24:59.253Z,90.00
2019-02-08T00:27:26.599Z,90.10
2019-02-08T00:29:53.986Z,90.10
2019-02-08T00:32:21.395Z,90.20
2019-02-08T00:34:49.037Z,90.30
2019-02-08T00:37:16.446Z,90.40
2019-02-08T00:39:43.848Z,90.40
2019-02-08T00:42:11.894Z,90.40
2019-02-08T00:44:39.237Z,90.40
2019-02-08T00:47:06.555Z,90.40
2019-02-08T00:49:33.836Z,90.40
2019-02-08T00:52:01.163Z,90.40
2019-02-08T00:54:28.917Z,90.50
2019-02-08T00:56:56.301Z,90.40
2019-02-08T00:59:23.509Z,90.50
2019-02-08T01:01:50.855Z,90.50
2019-02-08T01:04:18.211Z,90.50
2019-02-08T01:06:45.590Z,90.50
2019-02-08T01:09:12.905Z,90.60
2019-02-08T01:11:40.277Z,90.50
2019-02-08T01:14:08.031Z,90.60
2019-02-08T01:16:35.357Z,90.50
2019-02-08T01:19:02.735Z,90.50
2019-02-08T01:21:30.088Z,90.60
2019-02-08T01:23:57.421Z,90.60
2019-02-08T01:26:24.681Z,90.50
2019-02-08T01:28:52.031Z,90.50
2019-02-08T01:31:19.401Z,90.50
2019-02-08T01:33:46.761Z,90.40
2019-02-08T01:36:14.084Z,90.40
2019-02-08T01:38:41.422Z,90.40
2019-02-08T01:41:08.768Z,90.40
2019-02-08T01:43:36.022Z,90.40
2019-02-08T01:46:03.977Z,90.40
2019-02-08T01:48:31.332Z,90.40
2019-02-08T01:50:58.675Z,90.50
2019-02-08T01:53:25.886Z,90.60
2019-02-08T01:55:53.309Z,90.60
2019-02-08T01:58:20.633Z,90.60
2019-02-08T02:00:47.954Z,90.60
2019-02-08T02:03:15.319Z,90.70
2019-02-08T02:05:42.565Z,90.80
2019-02-08T02:08:10.201Z,90.80
2019-02-08T02:10:42.153Z,90.80
2019-02-08T02:13:10.091Z,90.80
2019-02-08T02:15:37.521Z,90.80
2019-02-08T02:18:05.551Z,90.80
2019-02-08T02:20:34.584Z,90.90
2019-02-08T02:23:02.235Z,90.90
2019-02-08T02:25:29.761Z,90.90
2019-02-08T02:27:57.107Z,90.90
2019-02-08T02:30:26.652Z,90.90
2019-02-08T02:32:54.025Z,91.00
2019-02-08T02:35:21.645Z,91.00
2019-02-08T02:37:48.997Z,91.20
2019-02-08T02:40:16.678Z,91.30
2019-02-08T02:42:44.079Z,91.40
2019-02-08T02:45:17.864Z,91.40
2019-02-08T02:47:45.285Z,91.60
2019-02-08T02:50:12.831Z,91.80
2019-02-08T02:52:40.159Z,91.90
2019-02-08T02:55:08.315Z,92.10
2019-02-08T02:57:35.553Z,92.20
2019-02-08T03:00:08.703Z,92.20
2019-02-08T03:02:35.983Z,92.40
2019-02-08T03:05:03.815Z,92.40
2019-02-08T03:07:31.141Z,92.40
2019-02-08T03:09:58.496Z,92.40
2019-02-08T03:12:25.716Z,92.40
2019-02-08T03:14:53.088Z,92.40
2019-02-08T03:17:20.438Z,92.40
2019-02-08T03:19:47.673Z,92.40
2019-02-08T03:22:14.955Z,92.40
2019-02-08T03:24:42.303Z,92.40
2019-02-08T03:27:09.629Z,92.40
2019-02-08T03:29:36.837Z,92.40
2019-02-08T03:32:04.190Z,92.40
2019-02-08T03:34:31.506Z,92.40
2019-02-08T03:36:58.837Z,92.40
2019-02-08T03:39:26.123Z,92.50
2019-02-08T03:41:53.433Z,92.50
2019-02-08T03:44:20.816Z,92.60
2019-02-08T03:46:48.202Z,92.60
2019-02-08T03:49:15.612Z,92.70
2019-02-08T03:51:42.962Z,92.70
2019-02-08T03:54:10.337Z,92.80
2019-02-08T03:56:37.657Z,92.80
2019-02-08T03:59:04.981Z,92.80
2019-02-08T04:01:32.331Z,92.80
2019-02-08T04:04:14.041Z,92.80
2019-02-08T04:06:41.648Z,92.70
2019-02-08T04:09:09.067Z,92.70
2019-02-08T04:11:36.450Z,92.70
2019-02-08T04:14:04.042Z,92.60
2019-02-08T04:16:31.316Z,92.60
2019-02-08T04:18:58.665Z,92.60
2019-02-08T04:21:25.913Z,92.90
2019-02-08T04:23:53.221Z,92.60
2019-02-08T04:26:20.428Z,92.60
2019-02-08T04:28:48.866Z,92.60
2019-02-08T04:31:16.218Z,92.60
2019-02-08T04:33:43.594Z,92.60
2019-02-08T04:36:10.984Z,92.60
2019-02-08T04:38:38.217Z,92.60
2019-02-08T04:41:05.428Z,92.60
2019-02-08T04:43:32.776Z,92.50
2019-02-08T04:46:00.019Z,92.50
2019-02-08T04:48:27.321Z,92.50
2019-02-08T04:50:54.611Z,92.40
2019-02-08T04:53:22.050Z,92.40
2019-02-08T04:55:49.417Z,92.40
2019-02-08T04:58:16.852Z,92.30
2019-02-08T05:00:44.154Z,92.30
2019-02-08T05:03:11.471Z,92.30
2019-02-08T05:05:38.726Z,92.20
2019-02-08T05:08:06.050Z,92.30
2019-02-08T05:10:33.810Z,92.20
2019-02-08T05:13:01.248Z,92.30
2019-02-08T05:15:28.597Z,92.20
2019-02-08T05:17:55.908Z,92.30
2019-02-08T05:20:24.423Z,92.70
2019-02-08T05:22:52.071Z,92.30
2019-02-08T05:25:19.651Z,92.30
2019-02-08T05:27:47.304Z,92.60
2019-02-08T05:30:17.366Z,92.40
2019-02-08T05:32:44.691Z,92.40
2019-02-08T05:35:12.140Z,92.40
2019-02-08T05:37:39.373Z,92.40
2019-02-08T05:40:07.868Z,92.50
2019-02-08T05:42:35.217Z,92.60
2019-02-08T05:45:03.103Z,92.60
2019-02-08T05:47:30.314Z,92.70
2019-02-08T05:49:57.551Z,92.70
2019-02-08T05:52:24.905Z,92.70
2019-02-08T05:54:54.358Z,92.70
2019-02-08T05:57:21.522Z,92.70
2019-02-08T05:59:48.909Z,92.70
2019-02-08T06:02:16.255Z,92.70
2019-02-08T06:04:43.635Z,92.70
2019-02-08T06:07:11.058Z,92.70
2019-02-08T06:09:38.398Z,92.70
2019-02-08T06:12:05.821Z,92.60
2019-02-08T06:14:33.197Z,92.70
2019-02-08T06:17:00.507Z,92.60
2019-02-08T06:19:27.750Z,92.60
2019-02-08T06:21:54.976Z,92.60
2019-02-08T06:24:22.212Z,92.60
2019-02-08T06:26:49.577Z,92.60
2019-02-08T06:29:16.781Z,92.60
2019-02-08T06:31:44.176Z,92.50
2019-02-08T06:34:11.503Z,92.60
2019-02-08T06:36:38.819Z,92.50
2019-02-08T06:39:09.196Z,92.50
2019-02-08T06:41:36.436Z,92.50
2019-02-08T06:44:03.960Z,92.40
2019-02-08T06:46:31.271Z,92.30
2019-02-08T06:48:58.551Z,92.30
2019-02-08T06:51:25.836Z,92.30
2019-02-08T06:53:53.162Z,92.30
2019-02-08T06:56:38.366Z,92.30
2019-02-08T06:59:33.886Z,92.30
2019-02-08T07:02:35.717Z,92.30
2019-02-08T07:05:34.431Z,92.20
2019-02-08T07:08:19.537Z,92.20
2019-02-08T07:10:54.748Z,92.20
2019-02-08T07:13:40.008Z,92.20
2019-02-08T07:16:26.854Z,92.20
2019-02-08T07:19:13.705Z,92.10
2019-02-08T07:21:51.939Z,92.00
2019-02-08T07:24:56.501Z,91.90
2019-02-08T07:27:32.402Z,91.90
2019-02-08T07:30:11.591Z,91.80
2019-02-08T07:32:58.469Z,91.80
2019-02-08T07:35:51.947Z,91.70
2019-02-08T07:38:37.023Z,91.60
2019-02-08T07:41:33.445Z,91.50
2019-02-08T07:44:23.081Z,91.50
2019-02-08T07:46:58.630Z,91.40
2019-02-08T07:49:43.077Z,91.30
2019-02-08T07:52:38.595Z,91.30
2019-02-08T07:55:32.401Z,91.20
2019-02-08T07:58:20.980Z,91.20
2019-02-08T08:01:22.988Z,91.00
2019-02-08T08:04:15.657Z,91.00
2019-02-08T08:07:05.279Z,90.90
2019-02-08T08:09:47.670Z,90.80
2019-02-08T08:12:34.145Z,90.80
2019-02-08T08:15:24.101Z,90.80
2019-02-08T08:18:10.938Z,90.80
2019-02-08T08:20:56.908Z,90.70
2019-02-08T08:23:36.614Z,90.70
2019-02-08T08:26:30.629Z,90.70
2019-02-08T08:29:13.010Z,90.70
2019-02-08T08:31:46.594Z,90.80
2019-02-08T08:34:27.684Z,90.80
2019-02-08T08:37:57.965Z,90.70
2019-02-08T08:41:05.877Z,90.70
2019-02-08T08:43:57.952Z,90.80
2019-02-08T08:47:13.542Z,90.70
2019-02-08T08:50:25.468Z,90.70
2019-02-08T08:53:16.732Z,90.70
2019-02-08T08:56:12.559Z,90.70
2019-02-08T08:59:23.118Z,90.60
2019-02-08T09:02:41.225Z,90.60
2019-02-08T09:05:48.169Z,90.50
2019-02-08T09:08:45.043Z,90.50
2019-02-08T09:11:49.668Z,90.40
2019-02-08T09:14:54.227Z,90.30
2019-02-08T09:17:53.591Z,90.20
2019-02-08T09:20:57.883Z,90.20
2019-02-08T09:24:17.858Z,90.20
2019-02-08T09:27:30.097Z,90.10
2019-02-08T09:30:50.198Z,90.10
2019-02-08T09:34:04.106Z,90.00
2019-02-08T09:36:59.319Z,89.80
2019-02-08T09:40:02.980Z,89.60
2019-02-08T09:43:27.312Z,89.30
2019-02-08T09:46:36.937Z,89.40
2019-02-08T09:49:58.605Z,89.00
2019-02-08T09:52:57.581Z,88.70
2019-02-08T09:56:02.227Z,88.30
2019-02-08T09:58:56.806Z,88.20
2019-02-08T10:02:01.407Z,87.90
2019-02-08T10:05:05.144Z,87.50
2019-02-08T10:08:22.021Z,87.50
2019-02-08T10:11:25.372Z,87.30
2019-02-08T10:14:20.450Z,87.20
2019-02-08T10:17:41.741Z,86.90
2019-02-08T10:20:46.731Z,87.10
2019-02-08T10:23:48.724Z,87.10
2019-02-08T10:26:59.782Z,86.90
2019-02-08T10:29:59.024Z,86.90
2019-02-08T10:33:04.053Z,86.90
2019-02-08T10:36:00.213Z,86.70
2019-02-08T10:39:15.143Z,86.50
2019-02-08T10:42:25.444Z,86.20
2019-02-08T10:45:34.604Z,85.60
2019-02-08T10:48:39.081Z,85.00
2019-02-08T10:51:32.906Z,84.60
2019-02-08T10:54:42.071Z,84.60
2019-02-08T10:57:49.513Z,84.30
2019-02-08T11:00:53.015Z,84.10
2019-02-08T11:03:51.126Z,84.10
2019-02-08T11:07:10.134Z,83.70
2019-02-08T11:10:08.228Z,83.50
2019-02-08T11:13:21.978Z,83.30
2019-02-08T11:16:33.395Z,83.10
2019-02-08T11:19:18.747Z,82.80
2019-02-08T11:21:47.293Z,82.20
2019-02-08T11:24:16.433Z,82.20
2019-02-08T11:26:44.010Z,82.00
2019-02-08T11:29:11.230Z,81.70
2019-02-08T11:31:38.467Z,81.50
2019-02-08T11:34:05.980Z,81.30
2019-02-08T11:36:33.449Z,81.50
2019-02-08T11:39:00.757Z,81.50
2019-02-08T11:41:28.107Z,81.50
2019-02-08T11:43:55.537Z,81.80
2019-02-08T11:46:22.838Z,82.00
2019-02-08T11:48:50.201Z,82.30
2019-02-08T11:51:17.538Z,82.20
2019-02-08T11:53:44.834Z,82.10
2019-02-08T11:56:12.154Z,82.80
2019-02-08T11:58:39.500Z,83.20
2019-02-08T12:01:06.816Z,83.50
2019-02-08T12:03:34.144Z,84.10
2019-02-08T12:06:01.480Z,84.60
2019-02-08T12:08:28.833Z,85.00
2019-02-08T12:10:56.251Z,85.10
2019-02-08T12:13:23.650Z,85.50
2019-02-08T12:15:50.959Z,85.70
2019-02-08T12:18:18.706Z,85.70
2019-02-08T12:20:46.090Z,86.00
2019-02-08T12:23:13.429Z,86.20
2019-02-08T12:25:40.640Z,86.40
2019-02-08T12:28:07.978Z,86.50
2019-02-08T12:30:36.733Z,86.70
2019-02-08T12:33:04.765Z,86.80
2019-02-08T12:35:32.104Z,87.00
2019-02-08T12:37:59.413Z,87.30
2019-02-08T12:40:26.629Z,87.40
2019-02-08T12:42:53.964Z,87.40
2019-02-08T12:45:21.400Z,87.60
2019-02-08T12:47:48.617Z,87.90
2019-02-08T12:50:16.260Z,88.00
2019-02-08T12:52:43.588Z,88.10
2019-02-08T12:55:11.148Z,88.30
2019-02-08T12:57:38.498Z,88.40
2019-02-08T13:00:08.814Z,88.40
2019-02-08T13:02:36.070Z,88.50
2019-02-08T13:05:03.987Z,88.70
2019-02-08T13:07:31.328Z,88.90
2019-02-08T13:09:58.602Z,89.10
2019-02-08T13:12:25.912Z,89.30
2019-02-08T13:14:53.136Z,89.40
2019-02-08T13:17:20.493Z,89.70
2019-02-08T13:19:47.791Z,89.90
2019-02-08T13:22:15.160Z,89.80
2019-02-08T13:24:42.463Z,89.90
2019-02-08T13:27:09.676Z,90.00
2019-02-08T13:29:37.066Z,90.00
2019-02-08T13:32:04.494Z,90.10
2019-02-08T13:34:31.832Z,90.10
2019-02-08T13:36:59.130Z,90.10
2019-02-08T13:39:26.472Z,90.10
2019-02-08T13:41:53.662Z,90.10
2019-02-08T13:44:21.009Z,90.10
2019-02-08T13:46:48.220Z,90.10
2019-02-08T13:49:15.519Z,90.10
2019-02-08T13:51:42.904Z,90.10
2019-02-08T13:54:10.260Z,90.00
2019-02-08T13:56:37.626Z,90.00
2019-02-08T13:59:05.035Z,90.00
2019-02-08T14:01:32.287Z,90.10
2019-02-08T14:03:59.491Z,90.10
2019-02-08T14:06:26.916Z,90.10
2019-02-08T14:08:54.156Z,90.00
2019-02-08T14:11:21.379Z,90.10
2019-02-08T14:13:48.702Z,90.10
2019-02-08T14:16:16.044Z,90.10
2019-02-08T14:18:43.296Z,90.20
2019-02-08T14:21:10.614Z,90.10
2019-02-08T14:23:37.925Z,90.20
2019-02-08T14:26:05.170Z,90.20
2019-02-08T14:28:32.494Z,90.20
2019-02-08T14:30:59.707Z,90.10
2019-02-08T14:33:26.932Z,90.00
2019-02-08T14:35:55.793Z,89.90
2019-02-08T14:38:23.378Z,89.90
2019-02-08T14:40:50.751Z,89.90
2019-02-08T14:43:18.029Z,89.60
2019-02-08T14:45:45.339Z,89.60
2019-02-08T14:48:12.640Z,89.50
2019-02-08T14:50:40.018Z,89.20
2019-02-08T14:53:07.337Z,89.30
2019-02-08T14:55:34.676Z,89.40
2019-02-08T14:58:02.108Z,89.50
2019-02-08T15:00:29.428Z,89.50
2019-02-08T15:02:56.800Z,89.50
2019-02-08T15:05:24.076Z,89.30
2019-02-08T15:07:51.365Z,89.30
2019-02-08T15:10:23.819Z,89.10
2019-02-08T15:12:51.622Z,89.00
2019-02-08T15:15:19.096Z,89.00
2019-02-08T15:17:46.462Z,89.10
2019-02-08T15:20:17.146Z,89.10
2019-02-08T15:22:44.468Z,88.90
2019-02-08T15:25:12.056Z,88.70
2019-02-08T15:27:39.256Z,88.80
2019-02-08T15:30:08.672Z,88.80
2019-02-08T15:32:36.125Z,88.80
2019-02-08T15:35:04.773Z,88.60
2019-02-08T15:37:32.081Z,88.70
2019-02-08T15:39:59.421Z,88.50
2019-02-08T15:42:26.846Z,88.50
2019-02-08T15:44:54.045Z,88.60
2019-02-08T15:47:21.582Z,88.30
2019-02-08T15:49:49.054Z,88.50
2019-02-08T15:52:16.550Z,88.50
2019-02-08T15:54:44.099Z,88.50
2019-02-08T15:57:11.426Z,88.50
2019-02-08T15:59:38.881Z,88.40
2019-02-08T16:02:06.405Z,88.30
2019-02-08T16:04:33.722Z,88.40
2019-02-08T16:07:00.925Z,88.50
2019-02-08T16:09:28.257Z,88.40
2019-02-08T16:11:55.453Z,88.50
2019-02-08T16:14:22.680Z,88.60
2019-02-08T16:16:50.036Z,88.40
2019-02-08T16:19:17.349Z,88.50
2019-02-08T16:21:44.540Z,88.20
2019-02-08T16:24:12.117Z,88.10
2019-02-08T16:26:39.451Z,88.00
2019-02-08T16:29:06.873Z,87.70
2019-02-08T16:31:34.273Z,87.60
2019-02-08T16:34:01.629Z,87.40
2019-02-08T16:36:28.931Z,86.90
2019-02-08T16:38:56.271Z,86.70
2019-02-08T16:41:23.621Z,86.30
2019-02-08T16:43:50.915Z,86.30
2019-02-08T16:46:18.287Z,85.80
2019-02-08T16:48:45.530Z,85.70
2019-02-08T16:51:12.857Z,85.60
2019-02-08T16:53:40.111Z,85.60
2019-02-08T16:56:07.691Z,85.40
2019-02-08T16:58:34.989Z,85.40
2019-02-08T17:01:02.556Z,85.30
2019-02-08T17:03:29.905Z,85.30
2019-02-08T17:05:57.221Z,85.40
2019-02-08T17:08:24.585Z,85.50
2019-02-08T17:10:51.895Z,85.40
2019-02-08T17:13:19.271Z,85.60
2019-02-08T17:15:46.608Z,85.50
2019-02-08T17:18:13.958Z,85.60
2019-02-08T17:20:43.425Z,85.70
2019-02-08T17:23:10.810Z,85.70
2019-02-08T17:25:38.136Z,85.70
2019-02-08T17:28:06.312Z,85.70
2019-02-08T17:30:33.535Z,85.70
2019-02-08T17:33:00.948Z,85.80
2019-02-08T17:35:28.871Z,85.70
2019-02-08T17:37:56.232Z,85.80
2019-02-08T17:40:25.781Z,85.80
2019-02-08T17:42:53.128Z,85.80
2019-02-08T17:45:20.512Z,85.70
2019-02-08T17:47:47.911Z,85.80
2019-02-08T17:50:17.353Z,85.70
2019-02-08T17:52:44.719Z,85.90
2019-02-08T17:55:12.934Z,86.10
2019-02-08T17:57:40.261Z,86.10
2019-02-08T18:00:12.665Z,86.10
2019-02-08T18:02:39.974Z,86.10
2019-02-08T18:05:07.779Z,85.90
2019-02-08T18:07:35.008Z,85.90
2019-02-08T18:10:02.712Z,86.00
2019-02-08T18:12:32.516Z,86.00
2019-02-08T18:14:59.188Z,86.10
2019-02-08T18:17:26.416Z,86.00
2019-02-08T18:19:53.732Z,86.10
2019-02-08T18:22:21.057Z,86.10
2019-02-08T18:24:48.397Z,86.10
2019-02-08T18:27:15.742Z,86.20
2019-02-08T18:29:42.969Z,86.10
2019-02-08T18:32:10.293Z,86.10
2019-02-08T18:34:37.655Z,86.30
2019-02-08T18:37:05.021Z,86.10
2019-02-08T18:39:32.449Z,86.20
2019-02-08T18:41:59.873Z,86.30
2019-02-08T18:44:27.219Z,86.20
2019-02-08T18:46:54.443Z,86.10
2019-02-08T18:49:21.797Z,86.10
2019-02-08T18:51:49.153Z,86.00
2019-02-08T18:54:16.367Z,85.90
2019-02-08T18:56:43.726Z,85.70
2019-02-08T18:59:10.968Z,85.50
2019-02-08T19:01:38.600Z,85.50
2019-02-08T19:04:05.923Z,85.10
2019-02-08T19:06:33.340Z,84.90
2019-02-08T19:09:00.718Z,85.00
2019-02-08T19:11:28.044Z,85.00
2019-02-08T19:13:55.421Z,84.80
2019-02-08T19:16:22.798Z,84.90
2019-02-08T19:18:50.160Z,84.90
2019-02-08T19:21:17.589Z,85.00
2019-02-08T19:23:44.937Z,85.00
2019-02-08T19:26:12.287Z,85.00
2019-02-08T19:28:39.676Z,85.00
2019-02-08T19:31:07.020Z,85.20
2019-02-08T19:33:34.359Z,85.10
2019-02-08T19:36:01.730Z,85.10
2019-02-08T19:38:29.114Z,85.20
2019-02-08T19:40:56.514Z,85.20
2019-02-08T19:43:24.005Z,85.20
2019-02-08T19:45:51.570Z,85.20
2019-02-08T19:48:20.684Z,85.30
2019-02-08T19:50:48.181Z,85.30
2019-02-08T19:53:15.491Z,85.10
2019-02-08T19:55:42.812Z,85.20
2019-02-08T19:58:10.510Z,85.00
2019-02-08T20:00:37.914Z,84.90
2019-02-08T20:03:05.928Z,85.00
2019-02-08T20:05:33.312Z,84.90
2019-02-08T20:08:00.629Z,84.80
2019-02-08T20:10:29.949Z,84.70
2019-02-08T20:12:57.359Z,84.50
2019-02-08T20:15:24.790Z,84.60
2019-02-08T20:17:52.217Z,84.50
2019-02-08T20:20:19.582Z,84.60
2019-02-08T20:22:47.018Z,84.70
2019-02-08T20:25:19.299Z,84.70
2019-02-08T20:27:46.634Z,84.70
2019-02-08T20:30:16.177Z,84.60
2019-02-08T20:32:44.027Z,84.30
2019-02-08T20:35:13.806Z,84.50
2019-02-08T20:37:41.151Z,84.50
2019-02-08T20:40:11.075Z,84.40
2019-02-08T20:42:38.461Z,84.40
2019-02-08T20:45:07.648Z,84.50
2019-02-08T20:47:35.005Z,84.50
2019-02-08T20:50:02.493Z,84.60
2019-02-08T20:52:29.865Z,84.60
2019-02-08T20:54:57.306Z,84.70
2019-02-08T20:57:24.598Z,84.60
2019-02-08T20:59:51.941Z,84.70
2019-02-08T21:02:19.541Z,84.60
2019-02-08T21:04:46.932Z,84.60
2019-02-08T21:07:14.258Z,84.60
2019-02-08T21:09:41.633Z,84.60
2019-02-08T21:12:08.991Z,84.60
2019-02-08T21:14:36.368Z,84.40
2019-02-08T21:17:03.658Z,84.30
2019-02-08T21:19:30.888Z,84.40
2019-02-08T21:21:58.210Z,84.30
2019-02-08T21:24:25.639Z,84.30
2019-02-08T21:26:52.988Z,84.30
2019-02-08T21:29:20.294Z,84.20
2019-02-08T21:31:47.627Z,84.30
2019-02-08T21:34:15.002Z,84.20
2019-02-08T21:36:42.346Z,84.20
2019-02-08T21:39:09.825Z,84.30
2019-02-08T21:41:37.175Z,84.30
2019-02-08T21:44:04.530Z,84.20
2019-02-08T21:46:31.996Z,83.90
2019-02-08T21:48:59.326Z,83.90
2019-02-08T21:51:26.542Z,83.60
2019-02-08T21:53:53.740Z,83.60
2019-02-08T21:56:21.097Z,83.10
2019-02-08T21:58:48.334Z,83.10
2019-02-08T22:01:15.658Z,82.80
2019-02-08T22:03:43.003Z,82.80
2019-02-08T22:06:10.389Z,82.80
2019-02-08T22:08:37.756Z,82.30
2019-02-08T22:11:05.097Z,82.00
2019-02-08T22:13:32.358Z,82.00
2019-02-08T22:15:59.693Z,81.60
2019-02-08T22:18:27.013Z,81.60
2019-02-08T22:20:54.335Z,81.20
2019-02-08T22:23:21.655Z,81.30
2019-02-08T22:25:48.997Z,81.50
2019-02-08T22:28:16.402Z,81.50
2019-02-08T22:30:43.822Z,81.60
2019-02-08T22:33:11.166Z,81.60
2019-02-08T22:35:38.414Z,81.60
2019-02-08T22:38:05.753Z,81.50
2019-02-08T22:40:33.093Z,81.50
2019-02-08T22:43:00.313Z,82.20
2019-02-08T22:45:35.158Z,81.50
2019-02-08T22:48:02.609Z,81.40
2019-02-08T22:50:29.938Z,81.60
2019-02-08T22:52:57.372Z,81.70
2019-02-08T22:55:26.156Z,81.70
2019-02-08T22:57:53.466Z,81.60
2019-02-08T23:01:02.205Z,81.30
2019-02-08T23:03:29.471Z,81.40
2019-02-08T23:05:56.771Z,81.40
2019-02-08T23:08:24.853Z,81.30
2019-02-08T23:10:52.172Z,81.30
2019-02-08T23:13:19.419Z,81.30
2019-02-08T23:15:46.780Z,81.30
2019-02-08T23:18:14.099Z,81.20
2019-02-08T23:20:41.458Z,81.20
2019-02-08T23:23:09.022Z,81.10
2019-02-08T23:25:36.334Z,81.20
2019-02-08T23:28:04.145Z,81.10
2019-02-08T23:30:31.500Z,81.20
2019-02-08T23:32:58.840Z,81.30
2019-02-08T23:35:26.213Z,81.10
2019-02-08T23:37:53.448Z,81.10
2019-02-08T23:40:20.744Z,81.20
2019-02-08T23:42:48.088Z,81.00
2019-02-08T23:45:15.650Z,81.10
2019-02-08T23:47:43.056Z,81.00
2019-02-08T23:50:10.456Z,80.90
2019-02-08T23:52:37.794Z,80.90
2019-02-08T23:55:05.389Z,80.90
2019-02-08T23:57:32.718Z,81.00
